createdAt,value
2023-03-02T00:00:15.389Z,16.03
2023-03-02T00:00:48.142Z,15.43
2023-03-02T00:01:21.546Z,16.27
2023-03-02T00:02:01.076Z,15.60
2023-03-02T00:02:32.951Z,16.13
2023-03-02T00:03:06.380Z,15.87
2023-03-02T00:03:41.061Z,15.87
2023-03-02T00:04:21.979Z,16.00
2023-03-02T00:04:57.276Z,15.57
2023-03-02T00:05:30.191Z,15.83
2023-03-02T00:06:03.296Z,16.40
2023-03-02T00:06:36.856Z,15.53
2023-03-02T00:07:14.782Z,14.57
2023-03-02T00:07:46.607Z,15.50
2023-03-02T00:08:19.704Z,15.83
2023-03-02T00:08:52.429Z,15.30
2023-03-02T00:09:24.611Z,15.17
2023-03-02T00:09:56.453Z,16.50
2023-03-02T00:10:28.802Z,16.63
2023-03-02T00:11:01.584Z,16.53
2023-03-02T00:11:38.006Z,16.43
2023-03-02T00:12:10.137Z,16.17
2023-03-02T00:12:42.731Z,15.63
2023-03-02T00:13:15.263Z,16.00
2023-03-02T00:13:47.327Z,16.00
2023-03-02T00:14:19.196Z,15.30
2023-03-02T00:14:51.055Z,16.00
2023-03-02T00:15:22.880Z,16.13
2023-03-02T00:15:54.753Z,15.90
2023-03-02T00:16:26.789Z,15.90
2023-03-02T00:16:58.766Z,15.80
2023-03-02T00:17:30.533Z,14.83
2023-03-02T00:18:03.401Z,14.33
2023-03-02T00:18:35.168Z,15.07
2023-03-02T00:19:06.948Z,16.20
2023-03-02T00:19:39.145Z,15.57
2023-03-02T00:20:11.867Z,14.60
2023-03-02T00:20:43.764Z,14.67
2023-03-02T00:21:15.698Z,15.27
2023-03-02T00:21:47.580Z,15.10
2023-03-02T00:22:19.666Z,15.23
2023-03-02T00:22:51.408Z,15.40
2023-03-02T00:23:23.266Z,15.67
2023-03-02T00:23:55.013Z,14.67
2023-03-02T00:24:26.808Z,15.10
2023-03-02T00:24:58.537Z,15.50
2023-03-02T00:25:30.305Z,14.47
2023-03-02T00:26:02.117Z,13.93
2023-03-02T00:26:35.711Z,15.33
2023-03-02T00:27:07.491Z,15.80
2023-03-02T00:27:39.706Z,15.03
2023-03-02T00:28:11.445Z,14.90
2023-03-02T00:28:43.350Z,14.67
2023-03-02T00:29:15.128Z,15.07
2023-03-02T00:29:47.504Z,15.20
2023-03-02T00:30:19.428Z,15.23
2023-03-02T00:30:51.190Z,15.33
2023-03-02T00:31:23.088Z,14.53
2023-03-02T00:31:55.053Z,15.20
2023-03-02T00:32:27.120Z,15.30
2023-03-02T00:32:58.950Z,14.20
2023-03-02T00:33:31.747Z,15.07
2023-03-02T00:34:03.731Z,14.50
2023-03-02T00:34:35.489Z,13.93
2023-03-02T00:35:08.095Z,14.37
2023-03-02T00:35:41.523Z,14.30
2023-03-02T00:36:20.662Z,14.90
2023-03-02T00:36:52.874Z,14.33
2023-03-02T00:37:25.935Z,13.03
2023-03-02T00:37:57.726Z,14.07
2023-03-02T00:38:29.677Z,14.97
2023-03-02T00:39:01.478Z,13.60
2023-03-02T00:39:33.239Z,14.13
2023-03-02T00:40:09.618Z,15.23
2023-03-02T00:40:46.372Z,15.60
2023-03-02T00:41:21.591Z,14.93
2023-03-02T00:41:53.478Z,15.37
2023-03-02T00:42:25.352Z,16.70
2023-03-02T00:42:57.133Z,15.97
2023-03-02T00:43:29.114Z,13.57
2023-03-02T00:44:00.931Z,13.80
2023-03-02T00:44:32.771Z,14.27
2023-03-02T00:45:05.823Z,14.20
2023-03-02T00:45:37.610Z,15.67
2023-03-02T00:46:14.326Z,15.67
2023-03-02T00:46:46.671Z,15.00
2023-03-02T00:47:18.558Z,14.27
2023-03-02T00:47:50.286Z,14.90
2023-03-02T00:48:22.785Z,14.87
2023-03-02T00:48:54.582Z,14.73
2023-03-02T00:49:26.757Z,14.23
2023-03-02T00:49:58.710Z,14.13
2023-03-02T00:50:30.820Z,15.17
2023-03-02T00:51:02.655Z,15.10
2023-03-02T00:51:34.459Z,15.07
2023-03-02T00:52:06.556Z,13.83
2023-03-02T00:52:38.353Z,13.40
2023-03-02T00:53:11.118Z,13.93
2023-03-02T00:53:43.017Z,14.43
2023-03-02T00:54:15.064Z,14.50
2023-03-02T00:54:46.848Z,13.73
2023-03-02T00:55:18.737Z,13.93
2023-03-02T00:55:54.896Z,14.33
2023-03-02T00:56:26.703Z,13.97
2023-03-02T00:56:58.564Z,13.47
2023-03-02T00:57:30.338Z,14.13
2023-03-02T00:58:02.766Z,14.20
2023-03-02T00:58:35.136Z,14.17
2023-03-02T00:59:26.445Z,14.00
2023-03-02T00:59:58.322Z,14.60
2023-03-02T01:00:31.106Z,14.30
2023-03-02T01:01:12.966Z,14.13
2023-03-02T01:01:44.797Z,13.77
2023-03-02T01:02:16.911Z,13.60
2023-03-02T01:02:50.079Z,14.33
2023-03-02T01:03:22.021Z,13.47
2023-03-02T01:03:53.799Z,12.83
2023-03-02T01:04:31.309Z,13.43
2023-03-02T01:05:03.091Z,14.10
2023-03-02T01:05:37.442Z,13.67
2023-03-02T01:06:16.570Z,13.93
2023-03-02T01:06:48.293Z,13.53
2023-03-02T01:07:21.240Z,13.93
2023-03-02T01:07:53.053Z,13.40
2023-03-02T01:08:25.274Z,13.40
2023-03-02T01:08:57.040Z,13.83
2023-03-02T01:09:29.888Z,14.33
2023-03-02T01:10:01.728Z,14.03
2023-03-02T01:10:34.324Z,14.50
2023-03-02T01:11:13.409Z,13.30
2023-03-02T01:11:45.217Z,13.50
2023-03-02T01:12:17.061Z,13.33
2023-03-02T01:12:48.789Z,13.30
2023-03-02T01:13:20.563Z,14.03
2023-03-02T01:13:52.353Z,14.77
2023-03-02T01:14:24.929Z,14.07
2023-03-02T01:14:56.717Z,13.83
2023-03-02T01:15:28.559Z,13.70
2023-03-02T01:16:04.090Z,13.33
2023-03-02T01:16:36.077Z,12.93
2023-03-02T01:17:08.767Z,14.00
2023-03-02T01:17:41.453Z,13.77
2023-03-02T01:18:13.215Z,14.60
2023-03-02T01:18:45.124Z,14.60
2023-03-02T01:19:17.532Z,14.03
2023-03-02T01:19:49.387Z,13.90
2023-03-02T01:20:21.214Z,14.23
2023-03-02T01:21:10.940Z,13.67
2023-03-02T01:21:43.173Z,14.30
2023-03-02T01:22:14.945Z,14.17
2023-03-02T01:22:46.806Z,13.57
2023-03-02T01:23:18.608Z,14.63
2023-03-02T01:23:51.905Z,14.97
2023-03-02T01:24:24.058Z,13.97
2023-03-02T01:24:55.911Z,14.00
2023-03-02T01:25:27.730Z,14.07
2023-03-02T01:25:59.519Z,14.73
2023-03-02T01:26:31.545Z,14.57
2023-03-02T01:27:03.884Z,14.43
2023-03-02T01:27:35.749Z,13.97
2023-03-02T01:28:07.546Z,14.13
2023-03-02T01:28:39.381Z,14.70
2023-03-02T01:29:11.719Z,14.83
2023-03-02T01:29:43.666Z,14.47
2023-03-02T01:30:16.408Z,14.40
2023-03-02T01:30:49.013Z,14.43
2023-03-02T01:31:21.796Z,14.03
2023-03-02T01:31:53.844Z,14.27
2023-03-02T01:32:25.946Z,14.53
2023-03-02T01:32:57.743Z,14.10
2023-03-02T01:33:30.562Z,14.63
2023-03-02T01:34:02.285Z,15.27
2023-03-02T01:34:34.034Z,15.53
2023-03-02T01:35:06.304Z,14.73
2023-03-02T01:35:38.153Z,14.83
2023-03-02T01:36:10.080Z,14.93
2023-03-02T01:36:45.605Z,15.20
2023-03-02T01:37:17.505Z,16.43
2023-03-02T01:37:49.307Z,15.00
2023-03-02T01:38:21.113Z,15.00
2023-03-02T01:38:54.303Z,15.77
2023-03-02T01:39:26.201Z,15.10
2023-03-02T01:39:57.950Z,14.77
2023-03-02T01:40:29.806Z,14.93
2023-03-02T01:41:01.544Z,14.53
2023-03-02T01:41:33.338Z,14.63
2023-03-02T01:42:05.821Z,15.10
2023-03-02T01:42:39.726Z,15.80
2023-03-02T01:43:15.381Z,15.50
2023-03-02T01:43:47.250Z,15.30
2023-03-02T01:44:42.357Z,15.77
2023-03-02T01:45:47.848Z,15.37
2023-03-02T01:46:24.586Z,15.93
2023-03-02T01:46:56.389Z,16.20
2023-03-02T01:47:39.191Z,16.10
2023-03-02T01:48:14.148Z,15.13
2023-03-02T01:48:55.120Z,15.93
2023-03-02T01:49:27.733Z,15.20
2023-03-02T01:50:12.990Z,14.93
2023-03-02T01:50:45.407Z,14.70
2023-03-02T01:51:20.941Z,15.10
2023-03-02T01:51:53.565Z,16.60
2023-03-02T01:52:27.060Z,16.03
2023-03-02T01:52:58.993Z,15.93
2023-03-02T01:53:34.636Z,16.50
2023-03-02T01:54:17.395Z,16.67
2023-03-02T01:54:52.365Z,16.10
2023-03-02T01:55:29.287Z,16.30
2023-03-02T01:56:03.923Z,16.10
2023-03-02T01:56:39.715Z,15.77
2023-03-02T01:57:47.857Z,15.80
2023-03-02T01:58:21.007Z,17.37
2023-03-02T01:59:02.142Z,16.00
2023-03-02T01:59:37.688Z,16.30
2023-03-02T02:00:19.480Z,16.83
2023-03-02T02:00:53.295Z,17.77
2023-03-02T02:01:25.112Z,17.10
2023-03-02T02:02:00.798Z,16.30
2023-03-02T02:02:32.751Z,16.63
2023-03-02T02:03:14.654Z,16.23
2023-03-02T02:03:50.423Z,18.17
2023-03-02T02:04:24.053Z,17.57
2023-03-02T02:04:56.947Z,17.80
2023-03-02T02:05:29.675Z,17.07
2023-03-02T02:06:09.309Z,16.63
2023-03-02T02:06:48.047Z,15.97
2023-03-02T02:07:19.991Z,16.20
2023-03-02T02:07:51.820Z,16.97
2023-03-02T02:08:24.261Z,16.90
2023-03-02T02:08:58.429Z,17.07
2023-03-02T02:09:35.531Z,16.63
2023-03-02T02:10:08.540Z,16.57
2023-03-02T02:10:40.813Z,16.53
2023-03-02T02:11:13.890Z,16.87
2023-03-02T02:11:46.789Z,17.67
2023-03-02T02:12:22.193Z,17.50
2023-03-02T02:12:53.949Z,16.70
2023-03-02T02:13:25.704Z,17.30
2023-03-02T02:14:00.422Z,17.37
2023-03-02T02:14:32.387Z,18.37
2023-03-02T02:15:05.617Z,17.27
2023-03-02T02:15:39.012Z,17.57
2023-03-02T02:16:11.372Z,17.37
2023-03-02T02:16:43.236Z,17.10
2023-03-02T02:17:17.640Z,16.77
2023-03-02T02:17:51.564Z,17.77
2023-03-02T02:18:23.414Z,17.73
2023-03-02T02:18:55.829Z,17.63
2023-03-02T02:19:55.183Z,17.33
2023-03-02T02:20:46.520Z,17.07
2023-03-02T02:21:21.133Z,17.33
2023-03-02T02:21:53.008Z,17.20
2023-03-02T02:22:59.158Z,17.70
2023-03-02T02:23:49.985Z,18.03
2023-03-02T02:24:42.333Z,17.77
2023-03-02T02:25:29.723Z,17.30
2023-03-02T02:26:26.559Z,18.10
2023-03-02T02:26:59.190Z,18.60
2023-03-02T02:27:34.171Z,18.33
2023-03-02T02:28:14.688Z,18.33
2023-03-02T02:29:00.654Z,18.03
2023-03-02T02:29:37.917Z,18.47
2023-03-02T02:30:14.859Z,17.87
2023-03-02T02:30:50.756Z,18.57
2023-03-02T02:31:27.741Z,18.23
2023-03-02T02:32:19.725Z,17.37
2023-03-02T02:32:55.192Z,18.00
2023-03-02T02:33:26.718Z,18.90
2023-03-02T02:34:22.944Z,19.13
2023-03-02T02:35:20.392Z,19.43
2023-03-02T02:36:01.948Z,19.07
2023-03-02T02:36:40.764Z,18.40
2023-03-02T02:37:20.236Z,17.80
2023-03-02T02:37:56.904Z,18.33
2023-03-02T02:38:29.442Z,18.53
2023-03-02T02:39:06.088Z,18.03
2023-03-02T02:39:43.541Z,18.30
2023-03-02T02:40:38.494Z,18.53
2023-03-02T02:41:20.832Z,17.97
2023-03-02T02:41:58.890Z,17.57
2023-03-02T02:42:39.253Z,18.87
2023-03-02T02:43:17.738Z,19.33
2023-03-02T02:43:50.387Z,18.27
2023-03-02T02:44:22.423Z,18.47
2023-03-02T02:44:58.307Z,19.07
2023-03-02T02:45:30.804Z,17.97
2023-03-02T02:46:03.598Z,18.30
2023-03-02T02:46:35.597Z,18.83
2023-03-02T02:47:22.278Z,18.37
2023-03-02T02:47:57.863Z,18.27
2023-03-02T02:48:32.468Z,19.20
2023-03-02T02:49:11.592Z,18.83
2023-03-02T02:49:44.571Z,19.13
2023-03-02T02:50:26.153Z,19.37
2023-03-02T02:51:03.398Z,18.70
2023-03-02T02:51:35.641Z,19.57
2023-03-02T02:52:07.590Z,19.93
2023-03-02T02:52:41.744Z,19.73
2023-03-02T02:53:20.437Z,18.83
2023-03-02T02:54:03.709Z,18.57
2023-03-02T02:54:38.971Z,19.30
2023-03-02T02:55:16.186Z,18.57
2023-03-02T02:55:52.913Z,18.87
2023-03-02T02:56:32.021Z,19.03
2023-03-02T02:57:05.561Z,19.63
2023-03-02T02:57:37.694Z,19.63
2023-03-02T02:58:38.977Z,18.87
2023-03-02T02:59:19.726Z,18.50
2023-03-02T02:59:56.057Z,19.27
2023-03-02T03:00:28.711Z,19.93
2023-03-02T03:01:01.522Z,18.90
2023-03-02T03:01:34.734Z,20.30
2023-03-02T03:02:06.838Z,18.97
2023-03-02T03:02:45.901Z,18.73
2023-03-02T03:03:39.901Z,19.63
2023-03-02T03:04:18.331Z,19.70
2023-03-02T03:04:50.617Z,18.93
2023-03-02T03:05:22.345Z,19.57
2023-03-02T03:05:54.227Z,19.50
2023-03-02T03:07:10.615Z,19.53
2023-03-02T03:07:43.352Z,18.83
2023-03-02T03:08:44.223Z,20.07
2023-03-02T03:09:16.114Z,18.80
2023-03-02T03:10:04.450Z,19.90
2023-03-02T03:10:41.503Z,19.40
2023-03-02T03:11:25.343Z,19.20
2023-03-02T03:12:03.691Z,20.53
2023-03-02T03:12:36.342Z,20.00
2023-03-02T03:13:12.378Z,19.30
2023-03-02T03:13:48.058Z,20.87
2023-03-02T03:14:27.056Z,19.90
2023-03-02T03:15:00.225Z,19.67
2023-03-02T03:15:32.076Z,18.73
2023-03-02T03:16:06.416Z,20.53
2023-03-02T03:16:40.341Z,19.60
2023-03-02T03:17:12.911Z,18.93
2023-03-02T03:18:02.558Z,19.90
2023-03-02T03:19:25.926Z,19.60
2023-03-02T03:20:06.355Z,19.17
2023-03-02T03:20:38.276Z,20.10
2023-03-02T03:21:10.714Z,19.60
2023-03-02T03:21:42.962Z,19.50
2023-03-02T03:22:17.045Z,19.87
2023-03-02T03:22:48.825Z,19.60
2023-03-02T03:23:20.636Z,19.77
2023-03-02T03:23:52.510Z,19.37
2023-03-02T03:24:26.181Z,20.30
2023-03-02T03:24:58.707Z,19.73
2023-03-02T03:25:32.202Z,19.80
2023-03-02T03:26:05.899Z,19.67
2023-03-02T03:26:37.771Z,20.20
2023-03-02T03:27:11.542Z,20.23
2023-03-02T03:27:43.322Z,20.07
2023-03-02T03:28:15.598Z,20.83
2023-03-02T03:28:47.653Z,20.83
2023-03-02T03:29:19.443Z,20.10
2023-03-02T03:29:51.258Z,19.90
2023-03-02T03:30:23.014Z,19.90
2023-03-02T03:30:54.827Z,20.37
2023-03-02T03:31:45.739Z,19.67
2023-03-02T03:32:19.088Z,20.70
2023-03-02T03:32:50.960Z,20.23
2023-03-02T03:33:22.724Z,19.80
2023-03-02T03:33:56.108Z,19.77
2023-03-02T03:34:29.992Z,19.47
2023-03-02T03:35:03.648Z,19.17
2023-03-02T03:35:37.085Z,20.27
2023-03-02T03:36:09.088Z,19.50
2023-03-02T03:36:43.374Z,20.00
2023-03-02T03:37:17.558Z,20.33
2023-03-02T03:37:49.696Z,21.03
2023-03-02T03:38:21.522Z,21.07
2023-03-02T03:38:53.418Z,20.40
2023-03-02T03:39:25.231Z,20.13
2023-03-02T03:39:57.013Z,19.97
2023-03-02T03:40:29.128Z,20.43
2023-03-02T03:41:00.949Z,20.23
2023-03-02T03:41:33.396Z,20.87
2023-03-02T03:42:05.672Z,19.87
2023-03-02T03:42:38.408Z,20.43
2023-03-02T03:43:12.491Z,20.70
2023-03-02T03:43:44.320Z,21.23
2023-03-02T03:44:16.145Z,21.13
2023-03-02T03:44:48.044Z,20.77
2023-03-02T03:45:20.065Z,20.67
2023-03-02T03:45:52.278Z,21.50
2023-03-02T03:46:56.581Z,21.03
2023-03-02T03:47:28.500Z,21.07
2023-03-02T03:48:00.416Z,20.43
2023-03-02T03:48:32.193Z,20.60
2023-03-02T03:49:04.392Z,20.53
2023-03-02T03:49:36.331Z,20.77
2023-03-02T03:50:08.893Z,19.93
2023-03-02T03:50:40.857Z,20.60
2023-03-02T03:51:12.701Z,20.63
2023-03-02T03:51:44.638Z,21.13
2023-03-02T03:52:16.547Z,20.93
2023-03-02T03:52:48.364Z,20.70
2023-03-02T03:53:20.211Z,22.10
2023-03-02T03:54:01.577Z,20.00
2023-03-02T03:54:33.589Z,20.20
2023-03-02T03:55:05.843Z,20.90
2023-03-02T03:55:37.654Z,20.83
2023-03-02T03:56:10.018Z,19.97
2023-03-02T03:56:48.179Z,20.67
2023-03-02T03:57:19.907Z,20.40
2023-03-02T03:57:51.652Z,20.17
2023-03-02T03:58:25.413Z,21.03
2023-03-02T03:59:07.003Z,19.80
2023-03-02T03:59:38.956Z,20.20
2023-03-02T04:00:19.953Z,21.43
2023-03-02T04:00:52.664Z,21.60
2023-03-02T04:01:35.037Z,21.47
2023-03-02T04:02:06.897Z,21.17
2023-03-02T04:02:38.737Z,20.87
2023-03-02T04:03:10.575Z,21.63
2023-03-02T04:03:42.394Z,21.83
2023-03-02T04:04:22.052Z,21.37
2023-03-02T04:04:53.981Z,21.43
2023-03-02T04:05:25.769Z,20.40
2023-03-02T04:05:57.556Z,21.43
2023-03-02T04:06:29.364Z,21.43
2023-03-02T04:07:01.336Z,20.87
2023-03-02T04:07:37.887Z,21.27
2023-03-02T04:08:09.888Z,21.37
2023-03-02T04:09:15.644Z,20.80
2023-03-02T04:09:47.417Z,21.40
2023-03-02T04:10:51.634Z,21.40
2023-03-02T04:11:23.817Z,21.83
2023-03-02T04:11:56.047Z,20.73
2023-03-02T04:12:27.835Z,20.97
2023-03-02T04:12:59.671Z,21.60
2023-03-02T04:13:31.417Z,20.73
2023-03-02T04:14:05.260Z,20.63
2023-03-02T04:14:37.161Z,21.07
2023-03-02T04:15:14.295Z,20.40
2023-03-02T04:15:47.190Z,21.40
2023-03-02T04:16:19.947Z,21.60
2023-03-02T04:16:53.155Z,22.03
2023-03-02T04:17:25.019Z,21.07
2023-03-02T04:17:56.912Z,21.43
2023-03-02T04:18:28.705Z,20.67
2023-03-02T04:19:01.240Z,21.23
2023-03-02T04:19:33.010Z,21.13
2023-03-02T04:20:10.015Z,21.27
2023-03-02T04:20:41.843Z,21.40
2023-03-02T04:21:13.642Z,21.67
2023-03-02T04:21:48.981Z,22.13
2023-03-02T04:22:20.950Z,21.97
2023-03-02T04:22:54.722Z,22.37
2023-03-02T04:23:26.593Z,22.10
2023-03-02T04:23:58.428Z,21.73
2023-03-02T04:24:30.349Z,21.70
2023-03-02T04:25:02.628Z,21.43
2023-03-02T04:25:34.424Z,21.67
2023-03-02T04:26:06.216Z,22.60
2023-03-02T04:26:39.974Z,21.97
2023-03-02T04:27:12.040Z,21.87
2023-03-02T04:27:43.832Z,21.73
2023-03-02T04:28:17.669Z,21.10
2023-03-02T04:28:52.739Z,21.60
2023-03-02T04:29:24.540Z,22.00
2023-03-02T04:29:56.287Z,21.70
2023-03-02T04:30:28.317Z,21.80
2023-03-02T04:31:00.176Z,23.00
2023-03-02T04:31:32.211Z,22.00
2023-03-02T04:32:04.443Z,21.60
2023-03-02T04:32:37.992Z,22.40
2023-03-02T04:33:09.938Z,22.37
2023-03-02T04:33:57.080Z,23.37
2023-03-02T04:34:28.991Z,21.87
2023-03-02T04:35:34.186Z,21.37
2023-03-02T04:36:06.246Z,22.13
2023-03-02T04:36:39.641Z,22.30
2023-03-02T04:37:11.515Z,21.50
2023-03-02T04:38:40.187Z,21.67
2023-03-02T04:39:16.565Z,21.97
2023-03-02T04:39:51.636Z,22.27
2023-03-02T04:40:24.797Z,21.90
2023-03-02T04:41:29.623Z,22.37
2023-03-02T04:42:04.600Z,22.57
2023-03-02T04:42:39.522Z,22.27
2023-03-02T04:43:45.516Z,22.37
2023-03-02T04:44:48.497Z,21.30
2023-03-02T04:45:23.453Z,22.47
2023-03-02T04:45:58.714Z,22.17
2023-03-02T04:46:34.396Z,21.17
2023-03-02T04:47:10.315Z,21.83
2023-03-02T04:47:45.643Z,21.77
2023-03-02T04:48:22.523Z,22.60
2023-03-02T04:48:57.484Z,22.07
2023-03-02T04:49:32.501Z,22.20
2023-03-02T04:50:04.678Z,23.17
2023-03-02T04:51:32.336Z,23.03
2023-03-02T04:52:05.785Z,22.90
2023-03-02T04:52:37.902Z,22.37
2023-03-02T04:53:11.613Z,22.77
2023-03-02T04:53:44.012Z,22.47
2023-03-02T04:54:19.119Z,22.50
2023-03-02T04:54:51.561Z,21.83
2023-03-02T04:55:24.180Z,21.70
2023-03-02T04:56:20.992Z,22.80
2023-03-02T04:57:27.465Z,22.57
2023-03-02T04:58:32.146Z,23.17
2023-03-02T04:59:04.072Z,22.13
2023-03-02T04:59:35.880Z,23.10
2023-03-02T05:00:40.931Z,22.47
2023-03-02T05:01:15.657Z,22.83
2023-03-02T05:02:20.298Z,23.50
2023-03-02T05:02:52.200Z,22.90
2023-03-02T05:03:23.981Z,22.73
2023-03-02T05:03:56.172Z,22.93
2023-03-02T05:04:29.631Z,22.77
2023-03-02T05:05:01.507Z,22.67
2023-03-02T05:05:33.651Z,23.60
2023-03-02T05:06:05.865Z,23.03
2023-03-02T05:06:37.788Z,23.07
2023-03-02T05:07:09.598Z,22.80
2023-03-02T05:07:41.359Z,22.90
2023-03-02T05:08:14.982Z,23.33
2023-03-02T05:08:46.795Z,22.67
2023-03-02T05:09:19.123Z,23.47
2023-03-02T05:09:50.872Z,24.27
2023-03-02T05:10:23.693Z,24.13
2023-03-02T05:10:55.665Z,23.53
2023-03-02T05:12:01.948Z,23.03
2023-03-02T05:12:58.815Z,23.30
2023-03-02T05:13:32.594Z,23.73
2023-03-02T05:14:08.193Z,24.00
2023-03-02T05:14:40.145Z,23.47
2023-03-02T05:15:12.234Z,22.57
2023-03-02T05:16:20.985Z,24.40
2023-03-02T05:16:53.452Z,23.53
2023-03-02T05:17:26.611Z,22.53
2023-03-02T05:18:00.470Z,24.10
2023-03-02T05:18:33.446Z,23.40
2023-03-02T05:19:10.381Z,23.27
2023-03-02T05:19:43.584Z,24.40
2023-03-02T05:20:40.155Z,25.40
2023-03-02T05:21:46.538Z,23.10
2023-03-02T05:22:21.534Z,24.60
2023-03-02T05:22:59.743Z,23.80
2023-03-02T05:23:34.804Z,24.30
2023-03-02T05:24:08.836Z,25.30
2023-03-02T05:24:44.537Z,24.07
2023-03-02T05:25:19.464Z,24.37
2023-03-02T05:25:55.776Z,24.83
2023-03-02T05:26:29.925Z,23.53
2023-03-02T05:27:05.426Z,23.50
2023-03-02T05:27:40.581Z,23.47
2023-03-02T05:28:15.470Z,24.20
2023-03-02T05:28:52.407Z,24.00
2023-03-02T05:29:29.482Z,24.33
2023-03-02T05:30:05.314Z,23.73
2023-03-02T05:31:23.430Z,24.90
2023-03-02T05:32:28.561Z,23.23
2023-03-02T05:33:03.609Z,23.53
2023-03-02T05:33:38.531Z,23.70
2023-03-02T05:34:14.176Z,24.03
2023-03-02T05:34:47.647Z,23.80
2023-03-02T05:35:23.217Z,24.87
2023-03-02T05:35:58.808Z,24.77
2023-03-02T05:36:33.094Z,24.90
2023-03-02T05:37:08.399Z,24.43
2023-03-02T05:37:44.831Z,24.77
2023-03-02T05:38:18.689Z,24.87
2023-03-02T05:38:53.551Z,24.40
2023-03-02T05:39:28.449Z,24.53
2023-03-02T05:40:01.591Z,25.20
2023-03-02T05:40:36.683Z,26.30
2023-03-02T05:41:11.519Z,26.90
2023-03-02T05:41:46.486Z,25.00
2023-03-02T05:42:21.486Z,30.40
2023-03-02T05:42:56.527Z,33.60
2023-03-02T05:43:31.515Z,34.37
2023-03-02T05:44:11.696Z,40.27
2023-03-02T05:44:47.580Z,94.17
2023-03-02T05:45:29.259Z,61.43
2023-03-02T05:46:04.773Z,66.33
2023-03-02T05:46:40.276Z,53.77
2023-03-02T05:47:15.597Z,48.13
2023-03-02T05:47:49.167Z,43.47
2023-03-02T05:48:24.460Z,46.43
2023-03-02T05:48:57.776Z,36.30
2023-03-02T05:49:33.475Z,34.17
2023-03-02T05:50:29.855Z,33.30
2023-03-02T05:51:34.653Z,28.20
2023-03-02T05:52:37.436Z,27.27
2023-03-02T05:53:12.467Z,25.97
2023-03-02T05:54:08.916Z,25.43
2023-03-02T05:55:18.615Z,25.23
2023-03-02T05:55:54.586Z,26.43
2023-03-02T05:57:02.216Z,23.73
2023-03-02T05:57:37.601Z,24.93
2023-03-02T05:58:11.354Z,24.57
2023-03-02T05:58:46.460Z,24.97
2023-03-02T05:59:21.464Z,24.80
2023-03-02T06:00:18.366Z,24.97
2023-03-02T06:01:23.484Z,29.67
2023-03-02T06:01:58.971Z,25.20
2023-03-02T06:03:04.456Z,24.70
2023-03-02T06:03:39.454Z,24.73
2023-03-02T06:04:14.523Z,24.87
2023-03-02T06:05:21.854Z,25.60
2023-03-02T06:05:53.685Z,24.87
2023-03-02T06:06:28.885Z,24.53
2023-03-02T06:07:33.626Z,25.77
2023-03-02T06:08:41.185Z,28.77
2023-03-02T06:09:16.482Z,30.77
2023-03-02T06:09:48.529Z,29.70
2023-03-02T06:10:23.799Z,29.00
2023-03-02T06:10:56.178Z,28.17
2023-03-02T06:11:30.399Z,27.50
2023-03-02T06:12:07.270Z,29.33
2023-03-02T06:12:40.875Z,27.63
2023-03-02T06:13:12.808Z,28.47
2023-03-02T06:13:44.696Z,27.73
2023-03-02T06:14:40.730Z,25.40
2023-03-02T06:15:48.454Z,24.77
2023-03-02T06:16:23.445Z,27.40
2023-03-02T06:16:58.595Z,27.23
2023-03-02T06:17:32.869Z,27.07
2023-03-02T06:18:08.440Z,27.47
2023-03-02T06:18:43.535Z,28.07
2023-03-02T06:19:18.577Z,28.60
2023-03-02T06:19:53.445Z,28.20
2023-03-02T06:20:26.632Z,30.07
2023-03-02T06:21:01.656Z,28.77
2023-03-02T06:21:33.545Z,27.70
2023-03-02T06:22:07.183Z,26.87
2023-03-02T06:23:14.538Z,26.33
2023-03-02T06:23:49.499Z,26.97
2023-03-02T06:24:24.452Z,27.97
2023-03-02T06:25:30.834Z,26.83
2023-03-02T06:26:11.201Z,26.13
2023-03-02T06:26:44.785Z,27.70
2023-03-02T06:27:18.589Z,26.90
2023-03-02T06:27:53.919Z,27.70
2023-03-02T06:28:29.458Z,27.37
2023-03-02T06:29:02.485Z,28.77
2023-03-02T06:29:37.559Z,26.37
2023-03-02T06:30:14.205Z,26.00
2023-03-02T06:31:22.267Z,27.40
2023-03-02T06:32:01.502Z,27.03
2023-03-02T06:32:35.666Z,26.83
2023-03-02T06:33:07.562Z,27.80
2023-03-02T06:33:42.494Z,27.83
2023-03-02T06:34:15.646Z,26.97
2023-03-02T06:34:48.482Z,27.93
2023-03-02T06:35:24.296Z,26.73
2023-03-02T06:35:56.992Z,27.43
2023-03-02T06:36:30.834Z,26.57
2023-03-02T06:37:03.470Z,26.87
2023-03-02T06:37:35.778Z,27.70
2023-03-02T06:38:11.447Z,26.40
2023-03-02T06:38:46.503Z,26.47
2023-03-02T06:39:19.562Z,27.27
2023-03-02T06:39:52.499Z,26.80
2023-03-02T06:40:24.032Z,26.90
2023-03-02T06:40:55.894Z,27.07
2023-03-02T06:42:02.147Z,26.30
2023-03-02T06:42:34.431Z,27.73
2023-03-02T06:43:06.304Z,26.70
2023-03-02T06:43:38.509Z,26.40
2023-03-02T06:44:14.606Z,25.80
2023-03-02T06:45:34.130Z,26.73
2023-03-02T06:46:06.376Z,25.87
2023-03-02T06:47:03.046Z,27.33
2023-03-02T06:48:10.588Z,27.40
2023-03-02T06:48:46.148Z,29.17
2023-03-02T06:49:19.481Z,29.83
2023-03-02T06:49:54.139Z,27.13
2023-03-02T06:50:29.555Z,26.07
2023-03-02T06:51:01.353Z,25.57
2023-03-02T06:51:34.970Z,24.73
2023-03-02T06:52:11.158Z,25.77
2023-03-02T06:52:44.467Z,26.47
2023-03-02T06:58:37.745Z,27.13
2023-03-02T06:59:11.222Z,26.73
2023-03-02T07:00:17.385Z,25.67
2023-03-02T07:00:51.179Z,25.47
2023-03-02T07:01:26.294Z,26.00
2023-03-02T07:02:01.113Z,26.97
2023-03-02T07:02:36.717Z,26.20
2023-03-02T07:03:12.119Z,27.13
2023-03-02T07:03:47.126Z,26.53
2023-03-02T07:04:20.820Z,27.40
2023-03-02T07:04:54.153Z,27.03
2023-03-02T07:05:26.785Z,26.70
2023-03-02T07:05:59.124Z,26.83
2023-03-02T07:06:34.082Z,25.53
2023-03-02T07:07:09.129Z,26.87
2023-03-02T07:07:41.288Z,27.97
2023-03-02T07:08:13.149Z,28.07
2023-03-02T07:09:21.140Z,27.97
2023-03-02T07:10:00.856Z,27.43
2023-03-02T07:11:08.560Z,28.20
2023-03-02T07:11:40.742Z,27.27
2023-03-02T07:12:12.544Z,27.17
2023-03-02T07:13:18.624Z,26.20
2023-03-02T07:13:56.088Z,25.57
2023-03-02T07:14:29.594Z,25.87
2023-03-02T07:15:03.985Z,26.60
2023-03-02T07:15:39.996Z,28.30
2023-03-02T07:16:47.633Z,26.47
2023-03-02T07:17:19.609Z,25.57
2023-03-02T07:18:24.789Z,27.77
2023-03-02T07:18:56.845Z,28.60
2023-03-02T07:19:31.618Z,29.27
2023-03-02T07:20:07.793Z,27.77
2023-03-02T07:20:39.760Z,28.83
2023-03-02T07:21:11.606Z,29.07
2023-03-02T07:21:43.426Z,29.43
2023-03-02T07:22:15.231Z,27.73
2023-03-02T07:23:23.799Z,26.27
2023-03-02T07:23:55.558Z,27.30
2023-03-02T07:24:30.736Z,27.67
2023-03-02T07:25:02.604Z,28.03
2023-03-02T07:25:34.422Z,27.57
2023-03-02T07:26:42.087Z,28.73
2023-03-02T07:27:13.881Z,27.73
2023-03-02T07:27:45.684Z,28.57
2023-03-02T07:28:17.481Z,27.40
2023-03-02T07:28:49.232Z,28.00
2023-03-02T07:29:20.991Z,27.73
2023-03-02T07:29:55.607Z,28.27
2023-03-02T07:30:27.486Z,27.83
2023-03-02T07:30:59.323Z,27.50
2023-03-02T07:31:34.317Z,28.83
2023-03-02T07:32:09.674Z,29.40
2023-03-02T07:32:42.575Z,28.37
2023-03-02T07:33:14.414Z,27.73
2023-03-02T07:33:47.136Z,29.00
2023-03-02T07:34:20.682Z,28.23
2023-03-02T07:34:52.863Z,29.67
2023-03-02T07:35:27.754Z,29.43
2023-03-02T07:36:01.697Z,28.70
2023-03-02T07:36:36.757Z,29.47
2023-03-02T07:37:08.620Z,30.10
2023-03-02T07:37:42.013Z,29.80
2023-03-02T07:38:13.846Z,29.77
2023-03-02T07:38:45.588Z,28.93
2023-03-02T07:39:17.721Z,29.17
2023-03-02T07:39:49.932Z,29.23
2023-03-02T07:40:21.735Z,30.03
2023-03-02T07:40:53.557Z,30.70
2023-03-02T07:41:25.379Z,29.10
2023-03-02T07:42:01.277Z,29.13
2023-03-02T07:42:34.152Z,29.47
2023-03-02T07:43:05.953Z,30.33
2023-03-02T07:43:37.878Z,29.37
2023-03-02T07:44:09.731Z,29.07
2023-03-02T07:44:41.610Z,28.83
2023-03-02T07:45:13.603Z,30.00
2023-03-02T07:45:45.829Z,30.37
2023-03-02T07:46:17.616Z,29.27
2023-03-02T07:46:49.585Z,29.27
2023-03-02T07:47:22.256Z,28.90
2023-03-02T07:47:54.151Z,28.67
2023-03-02T07:48:25.867Z,28.93
2023-03-02T07:48:59.206Z,28.37
2023-03-02T07:49:31.070Z,28.43
2023-03-02T07:50:03.445Z,27.33
2023-03-02T07:50:36.704Z,27.43
2023-03-02T07:51:08.498Z,27.60
2023-03-02T07:51:40.300Z,28.50
2023-03-02T07:52:12.047Z,27.60
2023-03-02T07:52:44.015Z,28.33
2023-03-02T07:53:15.816Z,28.03
2023-03-02T07:53:47.611Z,29.47
2023-03-02T07:54:19.637Z,28.87
2023-03-02T07:54:51.529Z,27.37
2023-03-02T07:55:23.319Z,28.53